createdAt,value
2022-09-23T00:00:10.852Z,22.30
2022-09-23T00:01:11.548Z,22.30
2022-09-23T00:02:12.391Z,22.28
2022-09-23T00:03:12.985Z,22.27
2022-09-23T00:04:13.544Z,22.28
2022-09-23T00:05:14.108Z,22.28
2022-09-23T00:06:14.667Z,22.25
2022-09-23T00:07:15.340Z,22.25
2022-09-23T00:08:15.904Z,22.24
2022-09-23T00:09:16.467Z,22.27
2022-09-23T00:10:17.029Z,22.25
2022-09-23T00:11:17.586Z,22.22
2022-09-23T00:12:18.237Z,22.22
2022-09-23T00:13:18.837Z,22.21
2022-09-23T00:14:19.408Z,22.22
2022-09-23T00:15:19.977Z,22.22
2022-09-23T00:16:20.627Z,22.21
2022-09-23T00:17:21.287Z,22.20
2022-09-23T00:18:21.847Z,22.18
2022-09-23T00:19:22.407Z,22.18
2022-09-23T00:20:22.976Z,22.20
2022-09-23T00:21:23.543Z,22.15
2022-09-23T00:22:24.159Z,22.14
2022-09-23T00:23:24.721Z,22.15
2022-09-23T00:24:25.284Z,22.14
2022-09-23T00:25:25.848Z,22.12
2022-09-23T00:26:26.407Z,22.14
2022-09-23T00:27:27.067Z,22.10
2022-09-23T00:28:27.654Z,22.09
2022-09-23T00:29:28.221Z,22.10
2022-09-23T00:30:28.846Z,22.09
2022-09-23T00:31:29.431Z,22.10
2022-09-23T00:32:30.085Z,22.09
2022-09-23T00:33:30.649Z,22.06
2022-09-23T00:34:31.212Z,22.05
2022-09-23T00:35:31.781Z,22.06
2022-09-23T00:36:32.349Z,22.05
2022-09-23T00:37:33.131Z,22.07
2022-09-23T00:38:33.695Z,22.07
2022-09-23T00:39:34.261Z,22.06
2022-09-23T00:40:34.869Z,22.06
2022-09-23T00:41:35.477Z,22.07
2022-09-23T00:42:36.124Z,22.07
2022-09-23T00:43:36.784Z,22.07
2022-09-23T00:44:37.345Z,22.10
2022-09-23T00:45:37.965Z,22.06
2022-09-23T00:46:38.572Z,22.06
2022-09-23T00:47:39.202Z,22.07
2022-09-23T00:48:39.763Z,22.09
2022-09-23T00:49:40.330Z,22.09
2022-09-23T00:50:40.893Z,22.09
2022-09-23T00:51:41.473Z,22.09
2022-09-23T00:52:42.161Z,22.09
2022-09-23T00:53:42.729Z,22.09
2022-09-23T00:54:43.309Z,22.12
2022-09-23T00:55:43.875Z,22.10
2022-09-23T00:56:44.446Z,22.14
2022-09-23T00:57:45.048Z,22.14
2022-09-23T00:58:45.643Z,22.12
2022-09-23T00:59:46.203Z,22.14
2022-09-23T01:00:46.762Z,22.15
2022-09-23T01:01:47.422Z,22.15
2022-09-23T01:02:48.175Z,22.15
2022-09-23T01:03:48.812Z,22.14
2022-09-23T01:04:49.377Z,22.17
2022-09-23T01:05:49.955Z,22.15
2022-09-23T01:06:50.535Z,22.17
2022-09-23T01:07:51.281Z,22.17
2022-09-23T01:08:51.848Z,22.18
2022-09-23T01:09:52.420Z,22.15
2022-09-23T01:10:52.990Z,22.15
2022-09-23T01:11:53.558Z,22.17
2022-09-23T01:12:54.271Z,22.17
2022-09-23T01:13:54.861Z,22.18
2022-09-23T01:14:55.434Z,22.15
2022-09-23T01:15:56.000Z,22.14
2022-09-23T01:16:56.596Z,22.17
2022-09-23T01:17:57.230Z,22.14
2022-09-23T01:18:57.811Z,22.18
2022-09-23T01:19:58.376Z,22.15
2022-09-23T01:20:58.945Z,22.14
2022-09-23T01:21:59.511Z,22.14
2022-09-23T01:23:00.106Z,22.12
2022-09-23T01:24:00.688Z,22.14
2022-09-23T01:25:01.300Z,22.14
2022-09-23T01:26:01.871Z,22.12
2022-09-23T01:27:02.450Z,22.15
2022-09-23T01:28:03.177Z,22.14
2022-09-23T01:29:03.777Z,22.12
2022-09-23T01:30:04.345Z,22.15
2022-09-23T01:31:05.053Z,22.12
2022-09-23T01:32:05.671Z,22.12
2022-09-23T01:33:06.304Z,22.12
2022-09-23T01:34:06.856Z,22.10
2022-09-23T01:35:07.450Z,22.12
2022-09-23T01:36:08.012Z,22.12
2022-09-23T01:37:08.566Z,22.12
2022-09-23T01:38:09.345Z,22.12
2022-09-23T01:39:09.911Z,22.10
2022-09-23T01:40:10.582Z,22.12
2022-09-23T01:41:11.182Z,22.10
2022-09-23T01:42:11.735Z,22.10
2022-09-23T01:43:12.337Z,22.10
2022-09-23T01:44:12.923Z,22.10
2022-09-23T01:45:13.478Z,22.09
2022-09-23T01:46:14.043Z,22.09
2022-09-23T01:47:14.599Z,22.09
2022-09-23T01:48:15.385Z,22.09
2022-09-23T01:49:16.068Z,22.05
2022-09-23T01:50:16.626Z,22.05
2022-09-23T01:51:17.184Z,22.00
2022-09-23T01:52:17.741Z,21.99
2022-09-23T01:53:18.338Z,21.98
2022-09-23T01:54:18.908Z,21.94
2022-09-23T01:55:19.472Z,21.92
2022-09-23T01:56:20.031Z,21.91
2022-09-23T01:57:20.591Z,21.86
2022-09-23T01:58:21.181Z,21.86
2022-09-23T01:59:21.756Z,21.83
2022-09-23T02:00:22.311Z,21.80
2022-09-23T02:01:22.975Z,21.80
2022-09-23T02:02:23.694Z,21.80
2022-09-23T02:03:24.498Z,21.79
2022-09-23T02:04:25.054Z,21.75
2022-09-23T02:05:25.612Z,21.75
2022-09-23T02:06:26.164Z,21.72
2022-09-23T02:07:26.730Z,21.75
2022-09-23T02:08:27.383Z,21.74
2022-09-23T02:09:27.942Z,21.74
2022-09-23T02:10:28.508Z,21.74
2022-09-23T02:11:29.067Z,21.75
2022-09-23T02:12:29.622Z,21.74
2022-09-23T02:13:30.693Z,21.75
2022-09-23T02:14:30.774Z,21.75
2022-09-23T02:15:31.329Z,21.75
2022-09-23T02:16:31.989Z,21.74
2022-09-23T02:17:32.598Z,21.74
2022-09-23T02:18:33.297Z,21.77
2022-09-23T02:19:33.852Z,21.75
2022-09-23T02:20:34.412Z,21.75
2022-09-23T02:21:34.969Z,21.77
2022-09-23T02:22:35.535Z,21.80
2022-09-23T02:23:36.146Z,21.79
2022-09-23T02:24:36.698Z,21.82
2022-09-23T02:25:37.262Z,21.80
2022-09-23T02:26:37.814Z,21.83
2022-09-23T02:27:38.368Z,21.82
2022-09-23T02:28:39.014Z,21.83
2022-09-23T02:29:39.595Z,21.84
2022-09-23T02:30:40.151Z,21.86
2022-09-23T02:31:40.776Z,21.86
2022-09-23T02:32:41.374Z,21.86
2022-09-23T02:33:42.021Z,21.86
2022-09-23T02:34:42.584Z,21.88
2022-09-23T02:35:43.139Z,21.86
2022-09-23T02:36:43.701Z,21.88
2022-09-23T02:37:44.260Z,21.90
2022-09-23T02:38:45.059Z,21.88
2022-09-23T02:39:45.623Z,21.88
2022-09-23T02:40:46.248Z,21.90
2022-09-23T02:41:46.862Z,21.91
2022-09-23T02:42:47.419Z,21.88
2022-09-23T02:43:48.015Z,21.88
2022-09-23T02:44:48.601Z,21.86
2022-09-23T02:45:49.212Z,21.86
2022-09-23T02:46:49.827Z,21.86
2022-09-23T02:47:50.385Z,21.84
2022-09-23T02:48:51.113Z,21.84
2022-09-23T02:49:51.675Z,21.82
2022-09-23T02:50:52.235Z,21.82
2022-09-23T02:51:52.789Z,21.83
2022-09-23T02:52:53.351Z,21.83
2022-09-23T02:53:53.979Z,21.83
2022-09-23T02:54:54.538Z,21.83
2022-09-23T02:55:55.111Z,21.82
2022-09-23T02:56:55.674Z,21.82
2022-09-23T02:57:56.235Z,21.82
2022-09-23T02:58:56.835Z,21.80
2022-09-23T02:59:57.418Z,21.79
2022-09-23T03:00:58.028Z,21.80
2022-09-23T03:01:58.711Z,21.79
2022-09-23T03:02:59.288Z,21.77
2022-09-23T03:03:59.917Z,21.79
2022-09-23T03:05:00.485Z,21.80
2022-09-23T03:06:01.049Z,21.79
2022-09-23T03:07:01.607Z,21.79
2022-09-23T03:08:02.171Z,21.79
2022-09-23T03:09:02.980Z,21.80
2022-09-23T03:10:03.589Z,21.79
2022-09-23T03:11:04.146Z,21.79
2022-09-23T03:12:04.713Z,21.79
2022-09-23T03:13:05.529Z,21.74
2022-09-23T03:14:06.175Z,21.74
2022-09-23T03:15:06.782Z,21.72
2022-09-23T03:16:07.402Z,21.74
2022-09-23T03:17:08.006Z,21.72
2022-09-23T03:18:09.562Z,21.74
2022-09-23T03:19:09.265Z,21.74
2022-09-23T03:20:09.845Z,21.71
2022-09-23T03:21:10.407Z,21.69
2022-09-23T03:22:10.964Z,21.69
2022-09-23T03:23:11.534Z,21.67
2022-09-23T03:24:12.133Z,21.65
2022-09-23T03:25:12.692Z,21.64
2022-09-23T03:26:13.250Z,21.65
2022-09-23T03:27:13.866Z,21.62
2022-09-23T03:28:14.451Z,21.64
2022-09-23T03:29:15.097Z,21.62
2022-09-23T03:30:15.687Z,21.62
2022-09-23T03:31:16.329Z,21.59
2022-09-23T03:32:16.913Z,21.59
2022-09-23T03:33:17.478Z,21.59
2022-09-23T03:34:18.120Z,21.59
2022-09-23T03:35:18.676Z,21.58
2022-09-23T03:36:19.236Z,21.59
2022-09-23T03:37:19.793Z,21.59
2022-09-23T03:38:20.349Z,21.58
2022-09-23T03:39:21.012Z,21.58
2022-09-23T03:40:21.662Z,21.58
2022-09-23T03:41:22.254Z,21.56
2022-09-23T03:42:22.814Z,21.59
2022-09-23T03:43:23.371Z,21.58
2022-09-23T03:44:23.974Z,21.56
2022-09-23T03:45:24.630Z,21.56
2022-09-23T03:46:25.200Z,21.58
2022-09-23T03:47:25.725Z,21.58
2022-09-23T03:48:26.276Z,21.54
2022-09-23T03:49:26.896Z,21.58
2022-09-23T03:50:27.459Z,21.58
2022-09-23T03:51:27.987Z,21.58
2022-09-23T03:52:28.543Z,21.58
2022-09-23T03:53:29.098Z,21.56
2022-09-23T03:54:29.655Z,21.56
2022-09-23T03:55:30.157Z,21.56
2022-09-23T03:56:30.660Z,21.58
2022-09-23T03:57:31.163Z,21.58
2022-09-23T03:58:31.669Z,21.56
2022-09-23T03:59:32.372Z,21.54
2022-09-23T04:00:32.978Z,21.54
2022-09-23T04:01:33.477Z,21.54
2022-09-23T04:02:34.182Z,21.56
2022-09-23T04:03:34.753Z,21.54
2022-09-23T04:04:35.300Z,21.58
2022-09-23T04:05:35.807Z,21.58
2022-09-23T04:06:36.312Z,21.61
2022-09-23T04:07:36.819Z,21.58
2022-09-23T04:08:37.322Z,21.58
2022-09-23T04:09:37.934Z,21.58
2022-09-23T04:10:38.443Z,21.59
2022-09-23T04:11:38.955Z,21.58
2022-09-23T04:12:39.491Z,21.59
2022-09-23T04:13:39.999Z,21.56
2022-09-23T04:14:40.603Z,21.56
2022-09-23T04:15:41.124Z,21.56
2022-09-23T04:16:41.715Z,21.54
2022-09-23T04:17:42.242Z,21.56
2022-09-23T04:18:42.744Z,21.53
2022-09-23T04:19:43.290Z,21.58
2022-09-23T04:20:43.793Z,21.58
2022-09-23T04:21:44.303Z,21.59
2022-09-23T04:22:44.803Z,21.58
2022-09-23T04:23:45.312Z,21.59
2022-09-23T04:24:45.858Z,21.61
2022-09-23T04:25:46.362Z,21.61
2022-09-23T04:26:46.872Z,21.64
2022-09-23T04:27:47.676Z,21.62
2022-09-23T04:28:48.193Z,21.64
2022-09-23T04:29:48.791Z,21.64
2022-09-23T04:30:49.369Z,21.67
2022-09-23T04:31:53.205Z,21.67
2022-09-23T04:32:50.724Z,21.68
2022-09-23T04:33:51.227Z,21.69
2022-09-23T04:34:53.659Z,21.68
2022-09-23T04:35:52.699Z,21.72
2022-09-23T04:36:53.722Z,21.71
2022-09-23T04:37:53.957Z,21.74
2022-09-23T04:38:54.516Z,21.72
2022-09-23T04:39:55.058Z,21.72
2022-09-23T04:40:55.562Z,21.74
2022-09-23T04:41:56.074Z,21.75
2022-09-23T04:42:56.582Z,21.77
2022-09-23T04:43:57.086Z,21.79
2022-09-23T04:44:57.630Z,21.82
2022-09-23T04:45:58.173Z,21.84
2022-09-23T04:46:58.751Z,21.86
2022-09-23T04:47:59.331Z,21.88
2022-09-23T04:48:59.974Z,21.98
2022-09-23T04:50:01.002Z,21.99
2022-09-23T04:51:01.355Z,22.05
2022-09-23T04:52:04.155Z,22.12
2022-09-23T04:53:14.723Z,22.15
2022-09-23T04:54:03.541Z,22.31
2022-09-23T04:55:19.108Z,22.54
2022-09-23T04:59:42.493Z,23.19
2022-09-23T05:01:04.995Z,23.39
2022-09-23T05:01:49.538Z,23.58
2022-09-23T05:02:45.560Z,23.61
2022-09-23T05:03:46.349Z,23.53
2022-09-23T05:04:48.542Z,23.69
2022-09-23T05:05:47.712Z,23.83
2022-09-23T05:06:49.200Z,23.94
2022-09-23T05:07:51.614Z,23.90
2022-09-23T05:08:50.473Z,23.76
2022-09-23T05:09:50.941Z,23.65
2022-09-23T05:11:00.786Z,23.53
2022-09-23T05:11:52.013Z,23.40
2022-09-23T05:12:57.017Z,23.38
2022-09-23T05:14:08.115Z,23.32
2022-09-23T05:15:01.086Z,23.28
2022-09-23T05:15:55.285Z,23.28
2022-09-23T05:16:56.802Z,23.27
2022-09-23T05:17:57.939Z,23.27
2022-09-23T05:18:57.705Z,23.23
2022-09-23T05:19:58.286Z,23.19
2022-09-23T05:20:59.614Z,23.15
2022-09-23T05:22:00.420Z,23.12
2022-09-23T05:23:00.471Z,23.07
2022-09-23T05:24:01.172Z,23.04
2022-09-23T05:25:01.872Z,23.02
2022-09-23T05:26:02.839Z,23.00
2022-09-23T05:27:03.598Z,23.02
2022-09-23T05:28:04.293Z,22.95
2022-09-23T05:29:04.863Z,22.95
2022-09-23T05:30:05.512Z,22.94
2022-09-23T05:31:06.278Z,22.95
2022-09-23T05:32:07.454Z,23.00
2022-09-23T05:33:07.892Z,23.00
2022-09-23T05:34:08.649Z,23.02
2022-09-23T05:35:09.574Z,23.09
2022-09-23T05:36:10.259Z,23.15
2022-09-23T05:37:10.935Z,23.20
2022-09-23T05:38:11.603Z,23.23
2022-09-23T05:39:12.232Z,23.25
2022-09-23T05:40:13.184Z,23.25
2022-09-23T05:41:14.906Z,23.25
2022-09-23T05:42:14.014Z,23.27
2022-09-23T05:43:14.972Z,23.27
2022-09-23T05:44:15.862Z,23.32
2022-09-23T05:45:16.947Z,23.33
2022-09-23T05:46:18.156Z,23.38
2022-09-23T05:47:17.927Z,23.40
2022-09-23T05:48:18.379Z,23.47
2022-09-23T05:49:19.321Z,23.48
2022-09-23T05:50:19.961Z,23.53
2022-09-23T05:51:20.801Z,23.57
2022-09-23T05:52:21.529Z,23.58
2022-09-23T05:53:22.287Z,23.61
2022-09-23T05:54:22.475Z,23.63
2022-09-23T05:55:23.041Z,23.61
2022-09-23T05:56:23.665Z,23.55
2022-09-23T05:57:24.356Z,23.55
2022-09-23T05:58:35.466Z,23.54
2022-09-23T05:59:28.432Z,23.51
2022-09-23T06:00:26.127Z,23.48
2022-09-23T06:01:26.876Z,23.50
2022-09-23T06:02:27.648Z,23.46
2022-09-23T06:03:28.343Z,23.46
2022-09-23T06:04:29.282Z,23.46
2022-09-23T06:05:30.025Z,23.48
2022-09-23T06:06:30.820Z,23.47
2022-09-23T06:07:31.530Z,23.47
2022-09-23T06:08:32.128Z,23.51
2022-09-23T06:09:36.387Z,23.50
2022-09-23T06:10:33.524Z,23.55
2022-09-23T06:11:34.288Z,23.61
2022-09-23T06:12:34.971Z,23.60
2022-09-23T06:13:36.857Z,23.68
2022-09-23T06:16:42.986Z,23.68
2022-09-23T06:17:35.178Z,23.68
2022-09-23T06:18:27.879Z,23.66
2022-09-23T06:19:29.257Z,23.60
2022-09-23T06:20:29.488Z,23.57
2022-09-23T06:21:31.138Z,23.57
2022-09-23T06:22:34.439Z,23.55
2022-09-23T06:23:32.144Z,23.57
2022-09-23T06:24:33.384Z,23.55
2022-09-23T06:25:33.929Z,23.54
2022-09-23T06:26:35.172Z,23.57
2022-09-23T06:27:35.758Z,23.60
2022-09-23T06:28:35.598Z,23.68
2022-09-23T06:29:36.375Z,23.72
2022-09-23T06:30:37.273Z,23.79
2022-09-23T06:31:38.215Z,23.88
2022-09-23T06:32:39.746Z,23.98
2022-09-23T06:33:40.652Z,24.06
2022-09-23T06:34:49.524Z,24.21
2022-09-23T06:35:44.444Z,24.28
2022-09-23T06:36:44.838Z,24.39
2022-09-23T06:37:43.150Z,24.37
2022-09-23T06:38:43.836Z,24.35
2022-09-23T06:39:44.426Z,24.34
2022-09-23T06:40:45.025Z,24.32
2022-09-23T06:41:45.725Z,24.32
2022-09-23T06:42:50.188Z,24.32
2022-09-23T06:43:47.707Z,24.34
2022-09-23T06:44:47.921Z,24.34
2022-09-23T06:45:49.440Z,24.39
2022-09-23T06:46:49.196Z,24.40
2022-09-23T06:47:49.985Z,24.40
2022-09-23T06:48:50.528Z,24.40
2022-09-23T06:49:51.277Z,24.40
2022-09-23T06:50:51.800Z,24.42
2022-09-23T06:51:52.549Z,24.46
2022-09-23T06:52:54.510Z,24.57
2022-09-23T06:53:57.014Z,24.60
2022-09-23T06:54:55.165Z,24.60
2022-09-23T06:55:56.902Z,24.60
2022-09-23T06:56:55.952Z,24.61
2022-09-23T06:57:56.752Z,24.64
2022-09-23T06:58:57.886Z,24.68
2022-09-23T07:00:07.484Z,24.83
2022-09-23T07:01:11.150Z,24.90
2022-09-23T07:02:11.983Z,25.03
2022-09-23T07:03:06.253Z,25.09
2022-09-23T07:04:01.759Z,25.14
2022-09-23T07:05:14.258Z,25.20
2022-09-23T07:06:02.880Z,25.23
2022-09-23T07:07:03.971Z,25.17
2022-09-23T07:08:04.518Z,25.14
2022-09-23T07:09:04.884Z,25.17
2022-09-23T07:10:05.594Z,25.21
2022-09-23T07:11:06.275Z,25.33
2022-09-23T07:12:07.189Z,25.54
2022-09-23T07:13:07.943Z,25.55
2022-09-23T07:14:08.482Z,25.75
2022-09-23T07:15:19.924Z,25.83
2022-09-23T07:16:09.920Z,25.95
2022-09-23T07:17:10.880Z,26.02
2022-09-23T07:18:11.588Z,26.18
2022-09-23T07:19:12.314Z,26.25
2022-09-23T07:20:13.023Z,26.18
2022-09-23T07:21:13.962Z,26.15
2022-09-23T07:22:15.105Z,26.23
2022-09-23T07:23:15.300Z,26.28
2022-09-23T07:24:15.987Z,26.29
2022-09-23T07:25:16.861Z,26.32
2022-09-23T07:26:17.557Z,26.30
2022-09-23T07:27:18.339Z,26.33
2022-09-23T07:28:19.070Z,26.33
2022-09-23T07:29:19.572Z,26.35
2022-09-23T07:30:25.172Z,26.37
2022-09-23T07:31:32.393Z,26.35
2022-09-23T07:32:22.113Z,26.28
2022-09-23T07:33:31.852Z,26.20
2022-09-23T07:34:24.149Z,26.06
2022-09-23T07:35:25.096Z,25.88
2022-09-23T07:36:34.477Z,25.72
2022-09-23T07:37:26.538Z,25.60
2022-09-23T07:38:27.978Z,25.45
2022-09-23T07:39:28.094Z,25.38
2022-09-23T07:40:28.903Z,25.25
2022-09-23T07:41:29.778Z,25.17
2022-09-23T07:42:30.616Z,25.03
2022-09-23T07:43:31.913Z,24.90
2022-09-23T07:44:32.175Z,24.84
2022-09-23T07:45:32.872Z,24.77
2022-09-23T07:46:35.269Z,24.73
2022-09-23T07:47:34.322Z,24.68
2022-09-23T07:48:34.946Z,24.71
2022-09-23T07:49:35.738Z,24.67
2022-09-23T07:50:38.035Z,24.69
2022-09-23T07:51:37.176Z,24.73
2022-09-23T07:52:37.766Z,24.77
2022-09-23T07:53:38.536Z,24.77
2022-09-23T07:54:39.698Z,24.80
2022-09-23T07:55:39.864Z,24.81
2022-09-23T07:56:40.684Z,24.83
2022-09-23T07:57:43.287Z,24.88
2022-09-23T07:58:42.254Z,24.96
2022-09-23T07:59:42.358Z,25.00
2022-09-23T08:00:42.882Z,25.08
2022-09-23T08:01:43.550Z,25.18
2022-09-23T08:02:44.297Z,25.33
2022-09-23T08:03:44.545Z,25.52
2022-09-23T08:04:45.670Z,25.64
2022-09-23T08:06:00.091Z,25.82
2022-09-23T08:06:51.100Z,25.99
2022-09-23T08:07:48.518Z,26.06
2022-09-23T08:08:53.339Z,26.09
2022-09-23T08:10:10.806Z,26.17
2022-09-23T08:11:06.204Z,26.28
2022-09-23T08:11:58.798Z,26.39
2022-09-23T08:12:52.191Z,26.63
2022-09-23T08:13:52.392Z,26.99
2022-09-23T08:14:52.919Z,27.22
2022-09-23T08:15:55.685Z,27.19
2022-09-23T08:17:25.021Z,27.27
2022-09-23T08:18:04.980Z,27.28
2022-09-23T08:18:55.707Z,27.27
2022-09-23T08:19:55.904Z,27.22
2022-09-23T08:20:56.422Z,27.17
2022-09-23T08:21:57.025Z,27.06
2022-09-23T08:22:57.717Z,27.00
2022-09-23T08:23:58.937Z,26.95
2022-09-23T08:24:58.949Z,26.82
2022-09-23T08:26:15.821Z,26.69
2022-09-23T08:26:59.995Z,26.63
2022-09-23T08:28:00.834Z,26.58
2022-09-23T08:29:02.579Z,26.58
2022-09-23T08:30:02.545Z,26.54
2022-09-23T08:31:03.140Z,26.47
2022-09-23T08:32:03.879Z,26.37
2022-09-23T08:33:04.426Z,26.35
2022-09-23T08:34:06.460Z,26.21
2022-09-23T08:35:05.739Z,26.12
2022-09-23T08:36:06.521Z,25.95
2022-09-23T08:37:07.032Z,25.94
2022-09-23T08:38:07.554Z,25.92
2022-09-23T08:39:08.097Z,25.90
2022-09-23T08:40:08.644Z,25.90
2022-09-23T08:41:09.366Z,25.87
2022-09-23T08:42:09.897Z,25.94
2022-09-23T08:43:10.686Z,25.97
2022-09-23T08:44:11.085Z,25.99
2022-09-23T08:45:11.606Z,26.09
2022-09-23T08:46:13.733Z,26.12
2022-09-23T08:47:15.233Z,26.21
2022-09-23T08:48:13.865Z,26.25
2022-09-23T08:49:14.475Z,26.30
2022-09-23T08:50:14.986Z,26.35
2022-09-23T08:51:15.597Z,26.40
2022-09-23T08:52:16.113Z,26.47
2022-09-23T08:53:16.901Z,26.52
2022-09-23T08:54:17.447Z,26.67
2022-09-23T08:55:17.953Z,26.80
2022-09-23T08:56:18.506Z,27.13
2022-09-23T08:57:19.321Z,27.50
2022-09-23T08:58:27.175Z,27.54
2022-09-23T08:59:24.750Z,27.62
2022-09-23T09:00:36.331Z,27.62
2022-09-23T09:03:10.968Z,28.09
2022-09-23T09:04:12.835Z,28.24
2022-09-23T09:05:13.613Z,28.56
2022-09-23T09:06:14.118Z,28.71
2022-09-23T09:08:15.485Z,28.30
2022-09-23T09:09:16.092Z,28.17
2022-09-23T09:10:16.713Z,28.15
2022-09-23T09:11:17.224Z,28.11
2022-09-23T09:12:17.961Z,28.22
2022-09-23T09:13:18.508Z,28.56
2022-09-23T09:14:19.020Z,28.68
2022-09-23T09:15:19.560Z,28.66
2022-09-23T09:16:31.716Z,28.64
2022-09-23T09:17:20.922Z,28.66
2022-09-23T09:18:21.438Z,28.58
2022-09-23T09:19:21.945Z,28.59
2022-09-23T09:20:22.561Z,28.56
2022-09-23T09:21:23.062Z,28.40
2022-09-23T09:22:23.769Z,28.30
2022-09-23T09:23:24.314Z,28.27
2022-09-23T09:24:24.825Z,28.15
2022-09-23T09:25:25.366Z,28.07
2022-09-23T09:26:25.877Z,28.04
2022-09-23T09:27:26.384Z,28.14
2022-09-23T09:28:26.883Z,28.09
2022-09-23T09:29:36.084Z,28.15
2022-09-23T09:30:29.151Z,28.18
2022-09-23T09:31:29.432Z,28.12
2022-09-23T09:32:30.250Z,28.06
2022-09-23T09:33:30.869Z,27.97
2022-09-23T09:34:31.368Z,27.79
2022-09-23T09:35:32.035Z,27.65
2022-09-23T09:36:32.541Z,27.75
2022-09-23T09:37:33.050Z,27.88
2022-09-23T09:38:41.292Z,27.72
2022-09-23T09:39:34.347Z,27.62
2022-09-23T09:40:37.325Z,27.47
2022-09-23T09:41:41.120Z,27.34
2022-09-23T09:42:38.045Z,27.21
2022-09-23T09:43:38.829Z,27.02
2022-09-23T09:44:37.857Z,26.81
2022-09-23T09:45:38.399Z,26.58
2022-09-23T09:46:39.062Z,26.47
2022-09-23T09:47:39.599Z,26.36
2022-09-23T09:48:40.107Z,26.32
2022-09-23T09:49:40.896Z,26.26
2022-09-23T09:50:41.483Z,26.23
2022-09-23T09:51:42.005Z,26.15
2022-09-23T09:52:42.486Z,26.15
2022-09-23T09:53:43.020Z,26.05
2022-09-23T09:54:43.528Z,25.94
2022-09-23T09:55:44.077Z,25.82
2022-09-23T09:56:44.944Z,25.67
2022-09-23T09:57:45.531Z,25.57
2022-09-23T09:58:46.039Z,25.43
2022-09-23T09:59:46.555Z,25.27
2022-09-23T10:00:47.097Z,25.17
2022-09-23T10:01:47.947Z,25.00
2022-09-23T10:02:48.324Z,24.88
2022-09-23T10:03:48.824Z,24.76
2022-09-23T10:04:49.626Z,24.68
2022-09-23T10:05:50.259Z,24.58
2022-09-23T10:06:50.769Z,24.47
2022-09-23T10:07:51.282Z,24.37
2022-09-23T10:08:51.792Z,24.32
2022-09-23T10:09:52.291Z,24.27
2022-09-23T10:10:52.865Z,24.21
2022-09-23T10:11:53.374Z,24.15
2022-09-23T10:12:53.874Z,24.10
2022-09-23T10:13:54.388Z,24.03
2022-09-23T10:14:54.906Z,24.05
2022-09-23T10:15:55.495Z,24.02
2022-09-23T10:16:56.058Z,24.00
2022-09-23T10:17:56.595Z,24.03
2022-09-23T10:18:57.111Z,24.03
2022-09-23T10:19:57.624Z,24.06
2022-09-23T10:20:58.328Z,24.09
2022-09-23T10:21:58.850Z,24.10
2022-09-23T10:22:59.365Z,24.13
2022-09-23T10:23:59.898Z,24.12
2022-09-23T10:25:00.914Z,24.13
2022-09-23T10:26:01.271Z,24.18
2022-09-23T10:27:01.845Z,24.24
2022-09-23T10:28:07.412Z,24.22
2022-09-23T10:29:03.378Z,24.24
2022-09-23T10:30:03.965Z,24.34
2022-09-23T10:31:04.549Z,24.34
2022-09-23T10:32:05.099Z,24.31
2022-09-23T10:33:06.308Z,24.34
2022-09-23T10:34:06.318Z,24.39
2022-09-23T10:35:06.826Z,24.46
2022-09-23T10:36:07.523Z,24.52
2022-09-23T10:37:08.033Z,24.62
2022-09-23T10:38:08.584Z,24.65
2022-09-23T10:39:09.807Z,24.78
2022-09-23T10:40:09.867Z,24.87
2022-09-23T10:41:10.558Z,25.00
2022-09-23T10:42:11.134Z,25.14
2022-09-23T10:43:11.666Z,25.23
2022-09-23T10:44:12.174Z,25.28
2022-09-23T10:45:12.691Z,25.21
2022-09-23T10:46:13.345Z,25.17
2022-09-23T10:47:13.884Z,25.17
2022-09-23T10:48:14.398Z,25.15
2022-09-23T10:49:14.966Z,25.05
2022-09-23T10:50:15.625Z,25.00
2022-09-23T10:51:16.365Z,24.88
2022-09-23T10:52:16.899Z,24.90
2022-09-23T10:53:17.418Z,24.83
2022-09-23T10:54:17.931Z,24.83
2022-09-23T10:55:18.436Z,24.90
2022-09-23T10:56:18.993Z,24.91
2022-09-23T10:57:19.495Z,24.96
2022-09-23T10:58:24.985Z,25.03
2022-09-23T10:59:20.682Z,25.08
2022-09-23T11:00:21.232Z,25.15
2022-09-23T11:01:21.869Z,25.18
2022-09-23T11:02:22.419Z,25.24
2022-09-23T11:03:25.810Z,25.25
2022-09-23T11:04:23.839Z,25.21
2022-09-23T11:05:28.001Z,25.24
2022-09-23T11:06:25.344Z,25.18
2022-09-23T11:07:25.871Z,25.24
2022-09-23T11:08:26.694Z,25.24
2022-09-23T11:09:27.132Z,25.18
2022-09-23T11:10:45.405Z,25.15
2022-09-23T11:11:28.542Z,25.15
2022-09-23T11:12:29.060Z,25.08
2022-09-23T11:13:29.591Z,25.08
2022-09-23T11:14:30.110Z,25.09
2022-09-23T11:15:30.621Z,25.03
2022-09-23T11:16:31.218Z,25.08
2022-09-23T11:17:31.940Z,25.02
2022-09-23T11:18:32.493Z,25.00
2022-09-23T11:19:33.052Z,24.96
2022-09-23T11:20:33.578Z,24.98
2022-09-23T11:21:34.193Z,24.98
2022-09-23T11:22:34.748Z,24.91
2022-09-23T11:23:35.264Z,24.93
2022-09-23T11:24:35.786Z,24.95
2022-09-23T11:25:36.294Z,24.99
2022-09-23T11:26:36.842Z,25.05
2022-09-23T11:27:37.369Z,25.09
2022-09-23T11:28:37.877Z,25.13
2022-09-23T11:29:38.398Z,25.18
2022-09-23T11:30:38.979Z,25.20
2022-09-23T11:31:39.703Z,25.25
2022-09-23T11:32:40.221Z,25.28
2022-09-23T11:33:40.733Z,25.30
2022-09-23T11:34:41.257Z,25.28
2022-09-23T11:35:41.806Z,25.27
2022-09-23T11:36:42.425Z,25.27
2022-09-23T11:37:42.959Z,25.27
2022-09-23T11:38:43.503Z,25.21
2022-09-23T11:39:44.021Z,25.13
2022-09-23T11:40:46.485Z,25.06
2022-09-23T11:41:45.313Z,24.95
2022-09-23T11:42:45.821Z,24.85
2022-09-23T11:43:46.327Z,24.78
2022-09-23T11:44:46.843Z,24.67
2022-09-23T11:45:47.434Z,24.62
2022-09-23T11:46:49.787Z,24.57
2022-09-23T11:47:48.940Z,24.50
2022-09-23T11:48:49.595Z,24.39
2022-09-23T11:49:50.105Z,24.27
2022-09-23T11:50:50.646Z,24.20
2022-09-23T11:51:51.289Z,24.12
2022-09-23T11:52:51.834Z,24.03
2022-09-23T11:53:52.343Z,24.00
2022-09-23T11:54:52.846Z,23.91
2022-09-23T11:55:57.774Z,23.87
2022-09-23T11:56:54.270Z,23.79
2022-09-23T11:57:54.850Z,23.76
2022-09-23T11:58:58.312Z,23.73
2022-09-23T11:59:56.266Z,23.72
2022-09-23T12:01:00.881Z,23.69
2022-09-23T12:01:58.205Z,23.68
2022-09-23T12:03:04.945Z,23.70
2022-09-23T12:04:04.047Z,23.70
2022-09-23T12:04:59.845Z,23.68
2022-09-23T12:06:00.546Z,23.69
2022-09-23T12:07:01.217Z,23.66
2022-09-23T12:08:01.747Z,23.65
2022-09-23T12:09:02.262Z,23.63
2022-09-23T12:10:02.794Z,23.63
2022-09-23T12:11:03.299Z,23.60
2022-09-23T12:12:03.855Z,23.57
2022-09-23T12:13:04.356Z,23.58
2022-09-23T12:14:04.864Z,23.55
2022-09-23T12:15:05.371Z,23.57
2022-09-23T12:16:05.943Z,23.55
2022-09-23T12:17:06.676Z,23.54
2022-09-23T12:18:07.259Z,23.58
2022-09-23T12:19:07.769Z,23.54
2022-09-23T12:20:08.284Z,23.54
2022-09-23T12:21:08.798Z,23.55
2022-09-23T12:22:10.120Z,23.53
2022-09-23T12:23:10.131Z,23.53
2022-09-23T12:24:10.655Z,23.53
2022-09-23T12:25:11.161Z,23.51
2022-09-23T12:26:11.660Z,23.51
2022-09-23T12:27:12.209Z,23.50
2022-09-23T12:28:12.716Z,23.50
2022-09-23T12:29:13.240Z,23.50
2022-09-23T12:30:13.756Z,23.51
2022-09-23T12:31:15.240Z,23.51
2022-09-23T12:32:14.906Z,23.51
2022-09-23T12:33:15.444Z,23.50
2022-09-23T12:34:15.948Z,23.47
2022-09-23T12:35:16.461Z,23.48
2022-09-23T12:36:16.976Z,23.46
2022-09-23T12:37:17.603Z,23.42
2022-09-23T12:38:18.137Z,23.40
2022-09-23T12:39:18.647Z,23.36
2022-09-23T12:40:19.209Z,23.31
2022-09-23T12:41:19.765Z,23.27
2022-09-23T12:42:20.320Z,23.19
2022-09-23T12:43:20.827Z,23.16
2022-09-23T12:44:21.339Z,23.09
2022-09-23T12:45:21.872Z,23.01
2022-09-23T12:46:22.431Z,22.94
2022-09-23T12:47:22.988Z,22.88
2022-09-23T12:48:23.508Z,22.80
2022-09-23T12:49:24.037Z,22.73
2022-09-23T12:50:24.635Z,22.67
2022-09-23T12:51:25.266Z,22.58
2022-09-23T12:52:25.839Z,22.54
2022-09-23T12:53:26.353Z,22.51
2022-09-23T12:54:26.852Z,22.51
2022-09-23T12:55:27.376Z,22.51
2022-09-23T12:56:27.882Z,22.49
2022-09-23T12:57:28.498Z,22.49
2022-09-23T12:58:29.018Z,22.51
2022-09-23T12:59:29.529Z,22.52
2022-09-23T13:00:34.239Z,22.51
2022-09-23T13:01:31.170Z,22.49
2022-09-23T13:02:31.940Z,22.47
2022-09-23T13:03:32.521Z,22.45
2022-09-23T13:04:33.036Z,22.40
2022-09-23T13:05:33.544Z,22.37
2022-09-23T13:06:34.050Z,22.35
2022-09-23T13:07:34.675Z,22.30
2022-09-23T13:08:35.212Z,22.31